Time;durP1;ratioP1;P1;durP2;ratioP2;P2;SDS_P1;SDS_P2;PMS_P1;PMS_P2;Temp;Humidity;BMP_temperature;BMP_pressure;BME280_temperature;BME280_humidity;BME280_pressure;Samples;Min_cycle;Max_cycle;Signal;HPM_P1;HPM_P2
2023/12/13 00:01:43;;;;;;;0.30;0.30;;;;;;;6.70;100.00;99522.22;5115054;28;20546;-46
2023/12/13 00:04:08;;;;;;;0.28;0.28;;;;;;;6.69;100.00;99517.97;5115621;28;20019;-49
2023/12/13 00:06:37;;;;;;;0.30;0.30;;;;;;;6.65;100.00;99505.91;5115396;28;20523;-48
2023/12/13 00:09:02;;;;;;;0.30;0.30;;;;;;;6.66;100.00;99505.06;5114466;28;20076;-49
2023/12/13 00:11:28;;;;;;;0.30;0.30;;;;;;;6.63;100.00;99508.41;5115250;28;20027;-48
2023/12/13 00:13:53;;;;;;;0.30;0.30;;;;;;;6.64;100.00;99510.16;5115931;28;20034;-49
2023/12/13 00:16:20;;;;;;;0.30;0.30;;;;;;;6.62;100.00;99511.81;5114205;28;20031;-49
2023/12/13 00:18:47;;;;;;;0.30;0.30;;;;;;;6.62;100.00;99510.94;5115383;28;20034;-47
2023/12/13 00:21:13;;;;;;;0.30;0.30;;;;;;;6.61;100.00;99507.53;5114935;28;20024;-45
2023/12/13 00:23:38;;;;;;;0.30;0.30;;;;;;;6.64;100.00;99511.88;5114407;28;20034;-47
2023/12/13 00:26:04;;;;;;;0.35;0.35;;;;;;;6.65;100.00;99511.00;5115322;28;20028;-47
2023/12/13 00:28:29;;;;;;;0.30;0.30;;;;;;;6.66;100.00;99510.19;5115003;28;20067;-47
2023/12/13 00:30:54;;;;;;;0.20;0.20;;;;;;;6.66;100.00;99505.06;5114425;28;20098;-46
2023/12/13 00:33:20;;;;;;;0.30;0.30;;;;;;;6.66;100.00;99505.97;5114763;28;20031;-48
2023/12/13 00:35:46;;;;;;;0.40;0.40;;;;;;;6.62;100.00;99506.69;5114886;28;20116;-50
2023/12/13 00:38:11;;;;;;;0.30;0.30;;;;;;;6.62;100.00;99499.00;5113657;28;20038;-49
2023/12/13 00:40:37;;;;;;;0.38;0.38;;;;;;;6.62;100.00;99501.56;5114952;28;20024;-46
2023/12/13 00:43:02;;;;;;;0.30;0.30;;;;;;;6.61;100.00;99498.97;5114672;28;20031;-49
2023/12/13 00:45:28;;;;;;;0.30;0.30;;;;;;;6.61;100.00;99504.97;5113920;28;20024;-47
2023/12/13 00:47:53;;;;;;;0.30;0.30;;;;;;;6.63;100.00;99494.78;5114557;28;20075;-46
2023/12/13 00:50:18;;;;;;;0.20;0.20;;;;;;;6.64;100.00;99501.63;5114289;28;20027;-47
2023/12/13 00:52:44;;;;;;;0.30;0.30;;;;;;;6.65;100.00;99495.66;5113749;28;20020;-49
2023/12/13 00:55:09;;;;;;;0.30;0.30;;;;;;;6.65;100.00;99496.53;5114565;28;20039;-47
2023/12/13 00:57:34;;;;;;;0.30;0.30;;;;;;;6.66;100.00;99494.81;5114527;28;20490;-48
2023/12/13 01:00:00;;;;;;;0.30;0.30;;;;;;;6.67;100.00;99489.75;5113657;28;20091;-47
2023/12/13 01:02:27;;;;;;;0.30;0.30;;;;;;;6.66;100.00;99495.72;5114182;28;20035;-49
2023/12/13 01:04:52;;;;;;;0.20;0.20;;;;;;;6.69;100.00;99497.47;5113700;28;20088;-47
2023/12/13 01:07:18;;;;;;;0.30;0.30;;;;;;;6.69;100.00;99502.59;5113788;28;20020;-47
2023/12/13 01:09:43;;;;;;;0.30;0.30;;;;;;;6.69;100.00;99492.38;5114464;28;20035;-45
2023/12/13 01:12:09;;;;;;;0.30;0.30;;;;;;;6.70;100.00;99494.06;5113643;28;20075;-46
2023/12/13 01:14:35;;;;;;;0.40;0.40;;;;;;;6.70;100.00;99500.06;5114354;28;20019;-46
2023/12/13 01:17:01;;;;;;;0.30;0.30;;;;;;;6.69;100.00;99489.81;5114323;28;20034;-47
2023/12/13 01:19:26;;;;;;;0.30;0.30;;;;;;;6.69;100.00;99487.25;5113091;28;20483;-46
2023/12/13 01:21:52;;;;;;;0.30;0.30;;;;;;;6.71;100.00;99493.25;5113949;28;20030;-47
2023/12/13 01:24:17;;;;;;;0.20;0.20;;;;;;;6.69;100.00;99495.78;5113964;28;20486;-50
2023/12/13 01:26:42;;;;;;;0.40;0.40;;;;;;;6.70;100.00;99494.06;5113219;28;20404;-46
2023/12/13 01:29:08;;;;;;;0.30;0.30;;;;;;;6.69;100.00;99497.47;5114065;28;20088;-48
2023/12/13 01:31:35;;;;;;;0.40;0.40;;;;;;;6.69;100.00;99487.25;5113907;28;20077;-45
2023/12/13 01:34:02;;;;;;;0.30;0.30;;;;;;;6.69;100.00;99498.34;5113163;28;20028;-45
2023/12/13 01:36:27;;;;;;;0.30;0.30;;;;;;;6.70;100.00;99497.50;5113511;28;20091;-46
2023/12/13 01:38:52;;;;;;;0.30;0.30;;;;;;;6.70;100.00;99497.50;5113714;28;20447;-45
2023/12/13 01:41:17;;;;;;;0.30;0.30;;;;;;;6.70;100.00;99504.31;5112877;28;20031;-46
2023/12/13 01:43:43;;;;;;;0.30;0.30;;;;;;;6.71;100.00;99500.94;5113692;28;20118;-47
2023/12/13 01:46:09;;;;;;;0.30;0.30;;;;;;;6.70;100.00;99494.06;5113766;28;20031;-49
2023/12/13 01:48:35;;;;;;;0.30;0.30;;;;;;;6.71;100.00;99490.69;5112610;28;20082;-45
2023/12/13 01:51:01;;;;;;;0.30;0.30;;;;;;;6.70;100.00;99496.63;5113792;28;20028;-48
2023/12/13 01:53:27;;;;;;;0.30;0.30;;;;;;;6.70;100.00;99506.88;5113383;28;20131;-46
2023/12/13 01:55:54;;;;;;;0.20;0.20;;;;;;;6.69;100.00;99503.47;5107951;28;20102;-46
2023/12/13 01:58:20;;;;;;;0.30;0.30;;;;;;;6.70;100.00;99509.44;5093030;28;20024;-45
2023/12/13 02:00:46;;;;;;;0.30;0.30;;;;;;;6.70;100.00;99512.00;5093085;28;20103;-49
2023/12/13 02:03:12;;;;;;;0.30;0.30;;;;;;;6.70;100.00;99510.31;5092001;28;20062;-47
2023/12/13 02:05:39;;;;;;;0.30;0.30;;;;;;;6.70;100.00;99502.63;5092968;28;20050;-46
2023/12/13 02:08:06;;;;;;;0.30;0.30;;;;;;;6.69;100.00;99506.00;5092377;28;20031;-45
2023/12/13 02:10:31;;;;;;;0.30;0.30;;;;;;;6.69;100.00;99503.47;5092333;28;20026;-46
2023/12/13 02:12:56;;;;;;;0.30;0.30;;;;;;;6.69;100.00;99505.16;5092819;28;20107;-46
2023/12/13 02:15:22;;;;;;;0.30;0.30;;;;;;;6.69;100.00;99498.34;5091940;28;20103;-46
2023/12/13 02:17:53;;;;;;;0.30;0.30;;;;;;;6.71;100.00;99498.38;5092784;28;20472;-47
2023/12/13 02:20:19;;;;;;;0.30;0.30;;;;;;;6.71;100.00;99503.47;5092421;28;20089;-48
2023/12/13 02:22:45;;;;;;;0.30;0.30;;;;;;;6.72;100.00;99497.53;5092300;28;20020;-45
2023/12/13 02:25:21;;;;;;;0.30;0.30;;;;;;;6.72;100.00;99495.84;5092425;28;20341;-45
2023/12/13 02:27:46;;;;;;;0.30;0.30;;;;;;;6.74;100.00;99495.91;5092703;28;20472;-46
2023/12/13 02:30:12;;;;;;;0.30;0.30;;;;;;;6.74;100.00;99495.91;5091769;28;20069;-47
2023/12/13 02:32:38;;;;;;;0.40;0.40;;;;;;;6.73;100.00;99489.03;5092668;28;20024;-49
2023/12/13 02:35:04;;;;;;;0.20;0.20;;;;;;;6.73;100.00;99494.16;5092676;28;20154;-46
2023/12/13 02:37:29;;;;;;;0.30;0.30;;;;;;;6.71;100.00;99490.69;5091561;28;20110;-45
2023/12/13 02:39:56;;;;;;;0.30;0.30;;;;;;;6.72;100.00;99494.97;5092590;28;20024;-46
2023/12/13 02:42:22;;;;;;;0.30;0.30;;;;;;;6.73;100.00;99489.88;5092382;28;20032;-46
2023/12/13 02:44:47;;;;;;;0.30;0.30;;;;;;;6.73;100.00;99491.59;5091906;28;20028;-47
2023/12/13 02:47:12;;;;;;;0.30;0.30;;;;;;;6.73;100.00;99482.22;5092230;28;20027;-47
2023/12/13 02:49:38;;;;;;;0.30;0.30;;;;;;;6.74;100.00;99485.66;5092354;28;20074;-48
2023/12/13 02:52:04;;;;;;;0.32;0.32;;;;;;;6.74;100.00;99480.53;5091827;28;20032;-47
2023/12/13 02:54:29;;;;;;;0.30;0.30;;;;;;;6.75;100.00;99489.91;5092287;28;20131;-46
2023/12/13 02:56:54;;;;;;;0.30;0.30;;;;;;;6.77;100.00;99489.97;5092677;28;20115;-48
2023/12/13 02:59:19;;;;;;;0.30;0.30;;;;;;;6.77;100.00;99488.28;5091637;28;20107;-47
2023/12/13 03:01:45;;;;;;;0.35;0.35;;;;;;;6.79;100.00;99484.06;5092574;28;20032;-48
2023/12/13 03:04:10;;;;;;;0.30;0.30;;;;;;;6.80;100.00;99480.66;5091958;28;20028;-45
2023/12/13 03:06:35;;;;;;;0.30;0.30;;;;;;;6.81;100.00;99479.81;5091731;28;20429;-48
2023/12/13 03:09:00;;;;;;;0.30;0.30;;;;;;;6.83;100.00;99480.72;5092429;28;20066;-45
2023/12/13 03:11:28;;;;;;;0.32;0.32;;;;;;;6.82;100.00;99479.00;5091487;28;20047;-45
2023/12/13 03:13:53;;;;;;;0.30;0.30;;;;;;;6.85;100.00;99479.06;5092495;28;20114;-47
2023/12/13 03:16:18;;;;;;;0.30;0.30;;;;;;;6.84;100.00;99479.91;5092092;28;20206;-47
2023/12/13 03:18:43;;;;;;;0.30;0.30;;;;;;;6.84;100.00;99472.22;5091464;28;20035;-46
2023/12/13 03:21:09;;;;;;;0.30;0.30;;;;;;;6.84;100.00;99469.66;5092250;28;20027;-48
2023/12/13 03:23:34;;;;;;;0.30;0.30;;;;;;;6.83;100.00;99467.94;5095099;28;20039;-48
2023/12/13 03:25:59;;;;;;;0.40;0.40;;;;;;;6.84;100.00;99472.22;5095346;28;20023;-47
2023/12/13 03:28:24;;;;;;;0.30;0.30;;;;;;;6.83;100.00;99465.38;5095528;28;20369;-48
2023/12/13 03:30:50;;;;;;;0.30;0.30;;;;;;;6.85;100.00;99473.06;5096091;28;20065;-47
2023/12/13 03:33:15;;;;;;;0.30;0.30;;;;;;;6.84;100.00;99464.53;5094713;28;20064;-47
2023/12/13 03:35:40;;;;;;;0.32;0.32;;;;;;;6.84;100.00;99467.09;5095695;28;20026;-46
2023/12/13 03:38:06;;;;;;;0.30;0.30;;;;;;;6.85;100.00;99463.69;5095969;28;20035;-48
2023/12/13 03:40:31;;;;;;;0.40;0.40;;;;;;;6.85;100.00;99468.81;5094741;28;20024;-48
2023/12/13 03:42:57;;;;;;;0.30;0.30;;;;;;;6.86;100.00;99462.88;5095688;28;20040;-46
2023/12/13 03:45:24;;;;;;;0.30;0.30;;;;;;;6.86;100.00;99470.53;5095292;28;20024;-49
2023/12/13 03:47:49;;;;;;;0.20;0.20;;;;;;;6.85;100.00;99463.69;5094434;28;20044;-46
2023/12/13 03:50:14;;;;;;;0.30;0.30;;;;;;;6.86;100.00;99455.19;5095384;28;20035;-47
2023/12/13 03:52:40;;;;;;;0.30;0.30;;;;;;;6.84;100.00;99454.31;5095603;28;20426;-49
2023/12/13 03:55:06;;;;;;;0.30;0.30;;;;;;;6.82;100.00;99453.38;5094826;28;20027;-47
2023/12/13 03:57:31;;;;;;;0.30;0.30;;;;;;;6.82;100.00;99445.72;5095092;28;20013;-47
2023/12/13 03:59:57;;;;;;;0.30;0.30;;;;;;;6.80;100.00;99449.91;5095317;28;20036;-45
2023/12/13 04:02:22;;;;;;;0.30;0.30;;;;;;;6.77;100.00;99447.31;5094132;28;20371;-45
2023/12/13 04:04:47;;;;;;;0.28;0.28;;;;;;;6.80;100.00;99449.06;5095415;28;20035;-46
2023/12/13 04:07:13;;;;;;;0.30;0.30;;;;;;;6.78;100.00;99446.47;5094948;28;20197;-48
2023/12/13 04:09:38;;;;;;;0.30;0.30;;;;;;;6.79;100.00;99442.22;5094238;28;20024;-46
2023/12/13 04:12:04;;;;;;;0.30;0.30;;;;;;;6.79;100.00;99448.22;5095201;28;20117;-46
2023/12/13 04:14:29;;;;;;;0.30;0.30;;;;;;;6.82;100.00;99445.72;5094848;28;20119;-48
2023/12/13 04:16:54;;;;;;;0.30;0.30;;;;;;;6.83;100.00;99434.63;5094220;28;20463;-47
2023/12/13 04:19:19;;;;;;;0.30;0.30;;;;;;;6.84;100.00;99448.28;5094819;28;20020;-45
2023/12/13 04:21:45;;;;;;;0.30;0.30;;;;;;;6.84;100.00;99446.63;5094312;28;20467;-46
2023/12/13 04:24:11;;;;;;;0.38;0.38;;;;;;;6.87;100.00;99456.91;5094687;28;20027;-48
2023/12/13 04:26:36;;;;;;;0.20;0.20;;;;;;;6.88;100.00;99450.97;5094677;28;20023;-48
2023/12/13 04:29:01;;;;;;;0.40;0.40;;;;;;;6.88;100.00;99453.53;5094133;28;20020;-46
2023/12/13 04:31:26;;;;;;;0.30;0.30;;;;;;;6.90;100.00;99449.28;5094436;28;20059;-46
2023/12/13 04:33:52;;;;;;;0.20;0.20;;;;;;;6.90;100.00;99444.16;5093798;28;20391;-46
2023/12/13 04:36:17;;;;;;;0.30;0.30;;;;;;;6.90;100.00;99445.88;5093623;28;20016;-46
2023/12/13 04:38:42;;;;;;;0.30;0.30;;;;;;;6.92;100.00;99439.94;5094602;28;20020;-49
2023/12/13 04:41:08;;;;;;;0.30;0.30;;;;;;;6.92;100.00;99439.94;5094540;28;20099;-49
2023/12/13 04:43:33;;;;;;;0.30;0.30;;;;;;;6.93;100.00;99445.94;5093483;28;20036;-49
2023/12/13 04:45:58;;;;;;;0.30;0.30;;;;;;;6.91;100.00;99442.50;5094405;28;20452;-46
2023/12/13 04:48:24;;;;;;;0.30;0.30;;;;;;;6.92;100.00;99442.50;5093722;28;20048;-47
2023/12/13 04:50:49;;;;;;;0.30;0.30;;;;;;;6.94;100.00;99441.69;5093539;28;20028;-46
2023/12/13 04:53:14;;;;;;;0.30;0.30;;;;;;;6.94;100.00;99444.25;5094135;28;20077;-48
2023/12/13 04:55:39;;;;;;;0.28;0.28;;;;;;;6.94;100.00;99442.53;5094292;28;20024;-46
2023/12/13 04:58:05;;;;;;;0.35;0.35;;;;;;;6.95;100.00;99443.44;5093414;28;20462;-49
2023/12/13 05:00:30;;;;;;;0.30;0.30;;;;;;;6.96;100.00;99446.00;5093901;28;20383;-47
2023/12/13 05:02:56;;;;;;;0.30;0.30;;;;;;;6.96;100.00;99435.78;5094072;28;20456;-51
2023/12/13 05:05:21;;;;;;;0.30;0.30;;;;;;;6.96;100.00;99446.00;5092974;28;20073;-48
2023/12/13 05:07:47;;;;;;;0.30;0.30;;;;;;;6.96;100.00;99440.88;5094003;28;20016;-47
2023/12/13 05:10:12;;;;;;;0.30;0.30;;;;;;;6.97;100.00;99436.63;5093782;28;20027;-47
2023/12/13 05:12:37;;;;;;;0.20;0.20;;;;;;;6.98;100.00;99433.22;5093213;28;20032;-46
2023/12/13 05:15:04;;;;;;;0.20;0.20;;;;;;;6.97;100.00;99442.63;5093882;28;20020;-46
2023/12/13 05:17:29;;;;;;;0.32;0.32;;;;;;;6.98;100.00;99436.66;5093377;28;20082;-46
2023/12/13 05:19:54;;;;;;;0.30;0.30;;;;;;;7.00;100.00;99431.59;5093295;28;20464;-47
2023/12/13 05:22:20;;;;;;;0.30;0.30;;;;;;;7.02;100.00;99435.03;5093425;28;20024;-46
2023/12/13 05:24:45;;;;;;;0.30;0.30;;;;;;;7.02;100.00;99425.66;5093725;28;20020;-49
2023/12/13 05:27:10;;;;;;;0.30;0.30;;;;;;;7.04;100.00;99428.25;5092620;28;20024;-45
2023/12/13 05:29:35;;;;;;;0.22;0.22;;;;;;;7.04;100.00;99420.56;5093460;28;20506;-45
2023/12/13 05:32:01;;;;;;;0.20;0.20;;;;;;;7.04;100.00;99418.84;5092845;28;20028;-47
2023/12/13 05:34:26;;;;;;;0.30;0.30;;;;;;;7.05;100.00;99425.72;5093313;28;20464;-46
2023/12/13 05:36:51;;;;;;;0.30;0.30;;;;;;;7.07;100.00;99430.84;5093509;28;20107;-45
2023/12/13 05:39:17;;;;;;;0.30;0.30;;;;;;;7.07;100.00;99428.28;5092265;28;20085;-47
2023/12/13 05:41:42;;;;;;;0.30;0.30;;;;;;;7.07;100.00;99429.16;5093383;28;20027;-46
2023/12/13 05:44:07;;;;;;;0.20;0.20;;;;;;;7.07;100.00;99428.28;5093423;28;20165;-45
2023/12/13 05:46:34;;;;;;;0.30;0.30;;;;;;;7.08;100.00;99424.91;5092101;28;20479;-47
2023/12/13 05:49:03;;;;;;;0.30;0.30;;;;;;;7.06;100.00;99429.13;5092947;28;20361;-46
2023/12/13 05:51:29;;;;;;;0.30;0.30;;;;;;;7.08;100.00;99424.91;5092869;28;20925;-49
2023/12/13 05:53:54;;;;;;;0.40;0.40;;;;;;;7.08;100.00;99432.59;5092520;28;20016;-47
2023/12/13 05:56:19;;;;;;;0.30;0.30;;;;;;;7.08;100.00;99427.47;5092930;28;20070;-46
2023/12/13 05:58:45;;;;;;;0.30;0.30;;;;;;;7.06;100.00;99435.13;5093115;28;20028;-46
2023/12/13 06:01:10;;;;;;;0.40;0.40;;;;;;;7.05;100.00;99430.84;5091981;28;20033;-45
2023/12/13 06:03:35;;;;;;;0.30;0.30;;;;;;;7.06;100.00;99436.81;5093260;28;20032;-46
2023/12/13 06:06:01;;;;;;;0.30;0.30;;;;;;;7.04;100.00;99438.50;5092918;28;20056;-48
2023/12/13 06:08:26;;;;;;;0.30;0.30;;;;;;;7.04;100.00;99436.78;5092005;28;20035;-49
2023/12/13 06:10:51;;;;;;;0.30;0.30;;;;;;;7.05;100.00;99438.53;5093028;28;20020;-48
2023/12/13 06:13:17;;;;;;;0.30;0.30;;;;;;;7.03;100.00;99434.19;5092965;28;20110;-46
2023/12/13 06:15:43;;;;;;;0.30;0.30;;;;;;;7.03;100.00;99441.88;5092128;28;20051;-47
2023/12/13 06:18:09;;;;;;;0.30;0.30;;;;;;;7.01;100.00;99443.53;5092993;28;20028;-47
2023/12/13 06:20:34;;;;;;;0.30;0.30;;;;;;;7.02;100.00;99440.16;5093083;28;20039;-48
2023/12/13 06:23:00;;;;;;;0.30;0.30;;;;;;;7.02;100.00;99442.72;5092240;28;20384;-50
2023/12/13 06:25:25;;;;;;;0.38;0.38;;;;;;;7.01;100.00;99443.53;5092641;28;20361;-45
2023/12/13 06:27:50;;;;;;;0.30;0.30;;;;;;;7.02;100.00;99445.28;5092678;28;20154;-47
2023/12/13 06:30:16;;;;;;;0.30;0.30;;;;;;;7.03;100.00;99447.00;5091701;28;20024;-49
2023/12/13 06:32:41;;;;;;;0.30;0.30;;;;;;;7.00;100.00;99445.25;5092931;28;20020;-48
2023/12/13 06:35:06;;;;;;;0.30;0.30;;;;;;;7.01;100.00;99449.53;5092915;28;20107;-49
2023/12/13 06:37:32;;;;;;;0.30;0.30;;;;;;;7.01;100.00;99448.66;5091852;28;20039;-46
2023/12/13 06:39:57;;;;;;;0.30;0.30;;;;;;;7.01;100.00;99444.41;5092774;28;20099;-48
2023/12/13 06:42:22;;;;;;;0.40;0.40;;;;;;;7.00;100.00;99447.81;5091739;28;20012;-47
2023/12/13 06:44:47;;;;;;;0.30;0.30;;;;;;;6.99;100.00;99451.19;5092560;28;20383;-47
2023/12/13 06:47:13;;;;;;;0.30;0.30;;;;;;;6.99;100.00;99455.47;5092529;28;20157;-46
2023/12/13 06:49:38;;;;;;;0.30;0.30;;;;;;;6.99;100.00;99450.34;5091611;28;20050;-50
2023/12/13 06:52:03;;;;;;;0.40;0.40;;;;;;;6.99;100.00;99452.91;5092828;28;20306;-47
2023/12/13 06:54:29;;;;;;;0.30;0.30;;;;;;;7.00;100.00;99458.03;5092473;28;20028;-47
2023/12/13 06:56:55;;;;;;;0.30;0.30;;;;;;;6.98;100.00;99454.56;5091971;28;20082;-47
2023/12/13 06:59:20;;;;;;;0.20;0.20;;;;;;;6.97;100.00;99452.88;5096234;28;20031;-50
2023/12/13 07:01:45;;;;;;;0.30;0.30;;;;;;;6.96;100.00;99456.25;5096284;28;20032;-49
2023/12/13 07:04:11;;;;;;;0.30;0.30;;;;;;;6.97;100.00;99457.13;5095250;28;20032;-47
2023/12/13 07:06:37;;;;;;;0.30;0.30;;;;;;;6.97;100.00;99462.22;5096574;28;20050;-46
2023/12/13 07:09:02;;;;;;;0.32;0.32;;;;;;;6.94;100.00;99457.91;5096468;28;20047;-50
2023/12/13 07:11:28;;;;;;;0.30;0.30;;;;;;;6.95;100.00;99466.47;5095261;28;20091;-50
2023/12/13 07:13:53;;;;;;;0.20;0.20;;;;;;;6.94;100.00;99457.91;5096179;28;20054;-46
2023/12/13 07:16:18;;;;;;;0.30;0.30;;;;;;;6.94;100.00;99462.19;5095749;28;20027;-48
2023/12/13 07:18:43;;;;;;;0.30;0.30;;;;;;;6.94;100.00;99457.06;5095645;28;20051;-46
2023/12/13 07:21:09;;;;;;;0.30;0.30;;;;;;;6.92;100.00;99463.00;5096290;28;20357;-48
2023/12/13 07:23:35;;;;;;;0.25;0.25;;;;;;;6.94;100.00;99462.19;5096015;28;20032;-48
2023/12/13 07:26:02;;;;;;;0.30;0.30;;;;;;;6.91;100.00;99463.81;5095168;28;20024;-47
2023/12/13 07:28:28;;;;;;;0.30;0.30;;;;;;;6.92;100.00;99463.00;5095783;28;20125;-46
2023/12/13 07:30:53;;;;;;;0.20;0.20;;;;;;;6.93;100.00;99461.28;5095771;28;20032;-46
2023/12/13 07:33:18;;;;;;;0.30;0.30;;;;;;;6.91;100.00;99468.94;5094553;28;20391;-46
2023/12/13 07:35:47;;;;;;;0.30;0.30;;;;;;;6.90;100.00;99462.09;5095885;28;20089;-46
2023/12/13 07:38:12;;;;;;;0.30;0.30;;;;;;;6.89;100.00;99465.50;5095453;28;20030;-49
2023/12/13 07:40:37;;;;;;;0.20;0.20;;;;;;;6.91;100.00;99468.94;5094990;28;20109;-46
2023/12/13 07:43:02;;;;;;;0.20;0.20;;;;;;;6.93;100.00;99471.53;5095442;28;20110;-46
2023/12/13 07:45:28;;;;;;;0.25;0.25;;;;;;;6.91;100.00;99468.94;5095184;28;20493;-46
2023/12/13 07:47:53;;;;;;;0.35;0.35;;;;;;;6.91;100.00;99468.09;5094465;28;20028;-47
2023/12/13 07:50:18;;;;;;;0.30;0.30;;;;;;;6.91;100.00;99468.09;5095455;28;20032;-48
2023/12/13 07:52:44;;;;;;;0.40;0.40;;;;;;;6.91;100.00;99468.94;5094598;28;20107;-47
2023/12/13 07:55:09;;;;;;;0.30;0.30;;;;;;;6.92;100.00;99469.84;5095374;28;20024;-45
2023/12/13 07:57:35;;;;;;;0.30;0.30;;;;;;;6.91;100.00;99476.63;5095323;28;20032;-46
2023/12/13 08:00:00;;;;;;;0.20;0.20;;;;;;;6.94;100.00;99469.88;5094400;28;20032;-45
2023/12/13 08:02:25;;;;;;;0.30;0.30;;;;;;;6.93;100.00;99471.53;5095180;28;20028;-50
2023/12/13 08:04:51;;;;;;;0.30;0.30;;;;;;;6.95;100.00;99480.13;5095201;28;20039;-48
2023/12/13 08:07:16;;;;;;;0.30;0.30;;;;;;;6.95;100.00;99471.59;5094501;28;20073;-46
2023/12/13 08:09:42;;;;;;;0.30;0.30;;;;;;;6.94;100.00;99472.44;5093856;28;20028;-48
2023/12/13 08:12:07;;;;;;;0.30;0.30;;;;;;;6.95;100.00;99474.16;5095153;28;20062;-46
2023/12/13 08:14:33;;;;;;;0.40;0.40;;;;;;;6.95;100.00;99477.56;5094129;28;20016;-46
2023/12/13 08:17:00;;;;;;;0.30;0.30;;;;;;;6.95;100.00;99479.28;5095202;28;20051;-46
2023/12/13 08:19:26;;;;;;;0.30;0.30;;;;;;;6.97;100.00;99480.16;5094767;28;20028;-45
2023/12/13 08:21:52;;;;;;;0.30;0.30;;;;;;;6.98;100.00;99474.22;5094244;28;20020;-46
2023/12/13 08:24:18;;;;;;;0.20;0.20;;;;;;;6.98;100.00;99481.91;5094430;28;20535;-48
2023/12/13 08:26:44;;;;;;;0.40;0.40;;;;;;;6.98;100.00;99474.22;5094767;28;20379;-50
2023/12/13 08:29:09;;;;;;;0.30;0.30;;;;;;;6.99;100.00;99481.06;5093741;28;20471;-46
2023/12/13 08:31:35;;;;;;;0.30;0.30;;;;;;;6.99;100.00;99483.63;5094903;28;20032;-46
2023/12/13 08:34:00;;;;;;;0.30;0.30;;;;;;;7.00;100.00;99483.66;5094689;28;20035;-46
2023/12/13 08:36:27;;;;;;;0.30;0.30;;;;;;;7.01;100.00;99495.66;5093493;28;20016;-46
2023/12/13 08:38:52;;;;;;;0.30;0.30;;;;;;;7.01;100.00;99493.09;5094766;28;20032;-45
2023/12/13 08:41:18;;;;;;;0.30;0.30;;;;;;;7.04;100.00;99494.84;5094287;28;20023;-45
2023/12/13 08:43:43;;;;;;;0.20;0.20;;;;;;;7.06;100.00;99493.16;5093625;28;20024;-45
2023/12/13 08:46:10;;;;;;;0.30;0.30;;;;;;;7.07;100.00;99500.03;5094671;28;20019;-47
2023/12/13 08:48:36;;;;;;;0.28;0.28;;;;;;;7.09;100.00;99500.94;5094237;28;20040;-48
2023/12/13 08:51:02;;;;;;;0.30;0.30;;;;;;;7.09;100.00;99498.38;5093522;28;20020;-48
2023/12/13 08:53:28;;;;;;;0.30;0.30;;;;;;;7.12;100.00;99498.44;5094146;28;20436;-47
2023/12/13 08:55:53;;;;;;;0.20;0.20;;;;;;;7.13;100.00;99496.72;5093386;28;20456;-47
2023/12/13 08:58:18;;;;;;;0.30;0.30;;;;;;;7.14;100.00;99501.03;5093740;28;20111;-46
2023/12/13 09:00:44;;;;;;;0.30;0.30;;;;;;;7.17;100.00;99501.09;5094245;28;20077;-48
2023/12/13 09:03:09;;;;;;;0.30;0.30;;;;;;;7.20;100.00;99503.72;5093388;28;20380;-46
2023/12/13 09:05:37;;;;;;;0.30;0.30;;;;;;;7.22;100.00;99504.63;5094209;28;20443;-46
2023/12/13 09:08:06;;;;;;;0.30;0.30;;;;;;;7.25;100.00;99509.81;5093902;28;20070;-45
2023/12/13 09:10:34;;;;;;;0.20;0.20;;;;;;;7.29;100.00;99505.63;5093017;28;20059;-48
2023/12/13 09:13:03;;;;;;;0.30;0.30;;;;;;;7.35;100.00;99519.44;5094155;28;20016;-47
2023/12/13 09:15:29;;;;;;;0.30;0.30;;;;;;;7.41;100.00;99521.25;5093747;28;20028;-45
2023/12/13 09:17:54;;;;;;;0.30;0.30;;;;;;;7.46;100.00;99518.78;5093097;28;20024;-44
2023/12/13 09:20:19;;;;;;;0.28;0.28;;;;;;;7.54;100.00;99518.13;5093203;28;20077;-47
2023/12/13 09:22:45;;;;;;;0.30;0.30;;;;;;;7.68;100.00;99514.94;5093719;28;20025;-46
2023/12/13 09:25:16;;;;;;;0.20;0.20;;;;;;;7.76;100.00;99516.00;5092762;28;20456;-46
2023/12/13 09:27:46;;;;;;;0.28;0.28;;;;;;;7.79;100.00;99521.16;5093807;28;20046;-46
2023/12/13 09:30:13;;;;;;;0.20;0.20;;;;;;;7.84;100.00;99522.13;5093500;28;20013;-46
2023/12/13 09:32:39;;;;;;;0.20;0.20;;;;;;;7.87;100.00;99522.16;5092740;28;20417;-47
2023/12/13 09:35:05;;;;;;;0.20;0.20;;;;;;;7.89;100.00;99524.78;5093384;28;20498;-47
2023/12/13 09:37:30;;;;;;;0.30;0.30;;;;;;;7.95;100.00;99524.88;5093281;28;20020;-48
2023/12/13 09:39:56;;;;;;;0.20;0.20;;;;;;;7.96;100.00;99528.31;5092640;28;20131;-44
2023/12/13 09:42:23;;;;;;;0.20;0.20;;;;;;;7.98;100.00;99532.66;5093436;28;20039;-48
2023/12/13 09:44:49;;;;;;;0.28;0.28;;;;;;;7.97;100.00;99528.34;5093486;28;20020;-47
2023/12/13 09:47:16;;;;;;;0.30;0.30;;;;;;;7.99;100.00;99533.50;5092263;28;20024;-47
2023/12/13 09:49:42;;;;;;;0.20;0.20;;;;;;;7.97;100.00;99537.75;5093168;28;20468;-45
2023/12/13 09:52:08;;;;;;;0.30;0.30;;;;;;;7.99;100.00;99539.53;5092828;28;20541;-45
2023/12/13 09:54:39;;;;;;;0.20;0.20;;;;;;;7.98;100.00;99545.47;5092562;28;20361;-48
2023/12/13 09:57:05;;;;;;;0.30;0.30;;;;;;;8.02;100.00;99542.13;5093098;28;20433;-45
2023/12/13 09:59:30;;;;;;;0.25;0.25;;;;;;;8.03;100.00;99543.88;5092371;28;20312;-46
2023/12/13 10:01:56;;;;;;;0.20;0.20;;;;;;;8.03;100.00;99548.13;5093227;28;20498;-46
2023/12/13 10:04:26;;;;;;;0.28;0.28;;;;;;;8.02;100.00;99546.41;5092581;28;20024;-47
2023/12/13 10:06:51;;;;;;;0.30;0.30;;;;;;;7.98;100.00;99553.19;5092203;28;20028;-46
2023/12/13 10:09:16;;;;;;;0.20;0.20;;;;;;;7.99;100.00;99548.91;5092835;28;20030;-45
2023/12/13 10:11:42;;;;;;;0.20;0.20;;;;;;;7.98;100.00;99549.72;5092799;28;20460;-45
2023/12/13 10:14:07;;;;;;;0.30;0.30;;;;;;;7.97;100.00;99556.56;5092031;28;20071;-49
2023/12/13 10:16:38;;;;;;;0.20;0.20;;;;;;;7.94;100.00;99571.91;5092677;28;20056;-46
2023/12/13 10:19:04;;;;;;;0.30;0.30;;;;;;;7.94;100.00;99568.47;5092936;28;20024;-47
2023/12/13 10:21:33;;;;;;;0.20;0.20;;;;;;;7.95;100.00;99567.63;5091752;28;20054;-45
2023/12/13 10:23:58;;;;;;;0.20;0.20;;;;;;;7.92;100.00;99565.88;5093066;28;20055;-45
2023/12/13 10:26:24;;;;;;;0.30;0.30;;;;;;;7.91;100.00;99569.28;5092814;28;20040;-46
2023/12/13 10:28:50;;;;;;;0.25;0.25;;;;;;;7.90;100.00;99567.53;5092007;28;20024;-45
2023/12/13 10:31:15;;;;;;;0.30;0.30;;;;;;;7.89;100.00;99566.69;5092600;28;20032;-47
2023/12/13 10:33:40;;;;;;;0.30;0.30;;;;;;;7.89;100.00;99566.69;5096193;28;20489;-46
2023/12/13 10:36:06;;;;;;;0.30;0.30;;;;;;;7.88;100.00;99566.66;5096037;28;20038;-46
2023/12/13 10:38:32;;;;;;;0.20;0.20;;;;;;;7.88;100.00;99570.06;5096801;28;20078;-47
2023/12/13 10:41:00;;;;;;;0.28;0.28;;;;;;;7.85;100.00;99571.72;5097049;28;20024;-47
2023/12/13 10:43:27;;;;;;;0.20;0.20;;;;;;;7.87;100.00;99573.47;5095935;28;20028;-45
2023/12/13 10:46:00;;;;;;;0.30;0.30;;;;;;;7.86;100.00;99574.34;5096901;28;20027;-46
2023/12/13 10:48:32;;;;;;;0.30;0.30;;;;;;;7.86;100.00;99571.75;5095265;28;20101;-45
2023/12/13 10:50:59;;;;;;;0.30;0.30;;;;;;;7.90;100.00;99565.84;5096860;28;20059;-48
2023/12/13 10:53:24;;;;;;;0.25;0.25;;;;;;;7.90;100.00;99564.97;5096271;28;20443;-48
2023/12/13 10:55:52;;;;;;;0.30;0.30;;;;;;;7.90;100.00;99558.16;5099311;28;20539;-49
2023/12/13 10:58:19;;;;;;;0.20;0.20;;;;;;;7.93;100.00;99566.72;5116772;28;20054;-45
2023/12/13 11:00:45;;;;;;;0.20;0.20;;;;;;;7.90;100.00;99573.56;5116957;28;20431;-49
2023/12/13 11:03:19;;;;;;;0.20;0.20;;;;;;;7.93;100.00;99567.63;5115648;28;20277;-45
2023/12/13 11:05:45;;;;;;;0.22;0.22;;;;;;;7.96;100.00;99572.78;5116985;28;20088;-45
2023/12/13 11:08:19;;;;;;;0.30;0.30;;;;;;;8.01;100.00;99571.19;5116343;28;20024;-47
2023/12/13 11:11:01;;;;;;;0.28;0.28;;;;;;;8.07;100.00;99571.31;5116126;28;20035;-46
2023/12/13 11:13:27;;;;;;;0.20;0.20;;;;;;;8.10;100.00;99580.75;5116512;28;20061;-48
2023/12/13 11:15:52;;;;;;;0.20;0.20;;;;;;;8.13;100.00;99577.41;5116486;28;20027;-46
2023/12/13 11:18:17;;;;;;;0.20;0.20;;;;;;;8.28;100.00;99579.41;5115377;28;20030;-47
2023/12/13 11:20:47;;;;;;;0.20;0.20;;;;;;;8.33;100.00;99588.03;5116462;28;20023;-45
2023/12/13 11:23:14;;;;;;;0.28;0.28;;;;;;;8.34;100.00;99582.94;5116048;28;20031;-48
2023/12/13 11:25:39;;;;;;;0.20;0.20;;;;;;;8.38;100.00;99586.44;5115921;28;20022;-45
2023/12/13 11:28:05;;;;;;;0.20;0.20;;;;;;;8.42;100.00;99593.34;5116056;28;20028;-47